Pulpca — PHMT — position and weather

sailwx.info

Track history (hours):
 
Tides and Currents Weather Stations Pressure Air Temp Water Temp Dewpoint Dewpoint Depression Visibility Wind Speed Wind Dir Waves Ship Positions

Pulpca

Last reported at 2016-May-29 00:33 UTC. Time now 2016-May-29 07:47 UTC.
Position N 55°40' E 015°35'.

Length 205 m; draft 6.9 m.

Type: Ship (hazmat cat A). MMSI: 245097000.

Date/timePositionNaut miles runAvg speedWind from/ knotsBaromVisibWave heightAir tempDewpointWater temp
2016-May-29 00:33N 55°40' E 015°35'2121.4
2016-May-28 23:33N 55°30' E 015°02'2121.3
2016-May-28 22:34N 55°17' E 014°32'2221.7
2016-May-28 21:33N 55°00' E 014°07'2221.8
2016-May-28 20:33N 54°53' E 013°31'2221.6
2016-May-28 19:33N 54°46' E 012°56'2619.9
2016-May-28 18:14N 54°34' E 012°16'1218.0
2016-May-28 17:34N 54°24' E 012°02'2020.0
2016-May-28 16:33N 54°15' E 011°32'2120.8
2016-May-28 15:34N 54°03' E 011°03'13 1.3
2016-May-28 05:32N 53°54' E 010°47'1 0.4
2016-May-28 03:15N 53°54' E 010°48'4 6.5
2016-May-28 02:33N 53°57' E 010°52'1514.6
2016-May-28 01:33N 54°08' E 011°10'1818.1
2016-May-28 00:33N 54°18' E 011°36'1818.0
2016-May-27 23:33N 54°26' E 012°03'1716.5
2016-May-27 22:33N 54°38' E 012°22'1818.3
2016-May-27 21:33N 54°48' E 012°49'1818.2
2016-May-27 20:33N 54°55' E 013°19'1818.3
2016-May-27 19:33N 55°02' E 013°48'1817.7
2016-May-27 18:33N 55°11' E 014°14'1818.4
2016-May-27 17:33N 55°25' E 014°35'1818.4
2016-May-27 16:33N 55°34' E 015°03'1918.5
2016-May-27 15:33N 55°44' E 015°31'1818.5
2016-May-27 14:33N 55°54' E 015°59'32317.9
2016-May-26 20:33N 59°43' E 023°05'7 0.5
2016-May-26 08:28N 59°48' E 022°58'8 8.8
2016-May-26 07:32N 59°42' E 023°09'7 7.2
2016-May-26 06:32N 59°42' E 023°23'8 8.3
2016-May-26 05:33N 59°42' E 023°39'10 9.7
2016-May-26 04:33N 59°45' E 023°58'29 9.3
2016-May-26 01:24N 59°51' E 024°55'10 9.2
2016-May-26 00:21N 59°52' E 025°14'8 9.4
2016-May-25 23:28N 59°54' E 025°30'10 9.6
2016-May-25 22:22N 59°56' E 025°51'8 9.6
2016-May-25 21:33N 59°58' E 026°06'10 9.7
2016-May-25 20:33N 60°00' E 026°25'9 9.4
2016-May-25 19:33N 60°01' E 026°43'9 9.5
2016-May-25 18:33N 59°60' E 027°02'11 9.5
2016-May-25 17:25N 60°05' E 027°21'9 9.8
2016-May-25 16:29N 60°09' E 027°37'8 8.6
2016-May-25 15:33N 60°11' E 027°53'10 9.3
2016-May-25 14:28N 60°08' E 028°13'8 9.0
2016-May-25 13:33N 60°04' E 028°27'9 9.1
2016-May-25 12:33N 60°03' E 028°45'1615.6
2016-May-25 11:33N 60°02' E 029°16'1413.5
2016-May-25 10:33N 59°59' E 029°43'1111.5
2016-May-25 09:33N 59°55' E 030°03'5 5.2
2016-May-25 08:33N 59°54' E 030°14'0 0.0
2016-May-25 07:31N 59°54' E 030°14'0 0.0
2016-May-25 06:31N 59°54' E 030°14'0 0.0
2016-May-25 05:28N 59°54' E 030°14'0 0.0
2016-May-25 04:31N 59°54' E 030°14'0 0.0
2016-May-25 03:31N 59°54' E 030°14'0 0.0
2016-May-25 02:31N 59°54' E 030°14'0 0.0
2016-May-25 01:25N 59°54' E 030°14'0 0.0
2016-May-25 00:31N 59°54' E 030°14'0 0.0
2016-May-24 23:31N 59°54' E 030°14'0 0.0
2016-May-24 22:31N 59°54' E 030°14'0 0.0
2016-May-24 21:31N 59°54' E 030°14'0 0.0
2016-May-24 20:31N 59°54' E 030°14'0 0.0
2016-May-24 19:28N 59°54' E 030°14'0 0.0
2016-May-24 18:31N 59°54' E 030°14'0 0.0
2016-May-24 17:31N 59°54' E 030°14'0 0.0
2016-May-24 16:31N 59°54' E 030°14'0 0.0
2016-May-24 15:31N 59°54' E 030°14'0 0.0
2016-May-24 14:28N 59°54' E 030°14'0 0.1
2016-May-24 13:31N 59°54' E 030°14'0 0.0
2016-May-24 12:31N 59°54' E 030°14'0 0.0
2016-May-24 11:33N 59°54' E 030°14'0 0.0
2016-May-24 10:27N 59°54' E 030°14'0 0.0
2016-May-24 09:33N 59°54' E 030°14'0 0.0
2016-May-24 08:33N 59°54' E 030°14'0 0.0
2016-May-24 07:33N 59°54' E 030°14'0 0.0
2016-May-24 06:33N 59°54' E 030°14'0 0.0
2016-May-24 05:33N 59°54' E 030°14'0 0.0
2016-May-24 04:33N 59°54' E 030°14'0 0.0
2016-May-24 03:33N 59°54' E 030°14'0 0.4
2016-May-24 02:33N 59°53' E 030°13'8 8.3
2016-May-24 01:33N 59°56' E 029°58'1212.3
2016-May-24 00:33N 60°01' E 029°35'1010.0
2016-May-23 23:33N 60°01' E 029°15'1515.1
2016-May-23 22:33N 60°02' E 028°45'1313.6
2016-May-23 21:34N 60°05' E 028°19'1414.2
2016-May-23 20:33N 60°10' E 027°52'1413.7
2016-May-23 19:33N 60°05' E 027°26'1414.3
2016-May-23 18:33N 59°58' E 027°01'1414.3
2016-May-23 17:34N 59°59' E 026°33'1313.0
2016-May-23 16:33N 60°11' E 026°23'1818.1
2016-May-23 15:34N 60°23' E 026°49'7 7.0
2016-May-23 14:33N 60°29' E 026°57'0 0.0
2016-May-23 13:33N 60°29' E 026°57'0 0.0
2016-May-23 12:33N 60°29' E 026°57'0 0.0
2016-May-23 11:33N 60°29' E 026°57'0 0.0
2016-May-23 10:33N 60°29' E 026°57'0 0.0
2016-May-23 09:33N 60°29' E 026°57'0 0.0
2016-May-23 08:33N 60°29' E 026°57'0 0.0
2016-May-23 07:33N 60°29' E 026°57'0 0.0
2016-May-23 06:33N 60°29' E 026°57'0 0.0
2016-May-23 05:33N 60°29' E 026°57'0 0.0
2016-May-23 04:34N 60°29' E 026°57'1010.1
2016-May-23 03:33N 60°22' E 026°42'1918.7
2016-May-23 02:33N 60°08' E 026°18'2017.3
2016-May-23 01:26N 59°53' E 025°52'5218.0
2016-May-22 22:33N 59°43' E 024°11'1818.1
2016-May-22 21:33N 59°42' E 023°35'1717.0
2016-May-22 20:33N 59°45' E 023°02'4 1.1
2016-May-22 16:27N 59°49' E 022°56'1112.0
2016-May-22 15:33N 59°38' E 022°59'2121.1
2016-May-22 14:33N 59°23' E 022°30'31022.1
2016-May-22 00:29N 55°43' E 015°41'2022.2
2016-May-21 23:33N 55°34' E 015°09'2222.0
2016-May-21 22:33N 55°23' E 014°36'2222.0
2016-May-21 21:34N 55°05' E 014°14'2221.7
2016-May-21 20:33N 54°55' E 013°40'2222.0
2016-May-21 19:33N 54°49' E 013°03'2120.6
2016-May-21 18:33N 54°39' E 012°32'2019.9
2016-May-21 17:33N 54°24' E 012°09'2120.8
2016-May-21 16:34N 54°16' E 011°37'2121.1
2016-May-21 15:33N 54°04' E 011°06'9 0.7
2016-May-21 02:22N 53°59' E 010°55'1417.4
2016-May-21 01:34N 54°09' E 011°12'1918.8
2016-May-21 00:34N 54°19' E 011°39'1818.1
2016-May-20 23:34N 54°26' E 012°07'1817.9
2016-May-20 22:33N 54°40' E 012°27'3819.0
2016-May-20 20:33N 54°56' E 013°27'1919.2
2016-May-20 19:34N 55°04' E 013°58'1918.6
2016-May-20 18:34N 55°17' E 014°20'1918.5
2016-May-20 17:34N 55°30' E 014°44'1918.9
2016-May-20 16:33N 55°39' E 015°13'1918.8
2016-May-20 15:33N 55°48' E 015°42'29018.1
2016-May-19 23:30N 59°17' E 021°58'1313.6
2016-May-19 22:33N 59°24' E 022°18'1313.0
2016-May-19 21:33N 59°31' E 022°40'1212.0
2016-May-19 20:33N 59°37' E 023°01'1211.4
2016-May-19 19:32N 59°48' E 022°57'6 0.3
2016-May-19 02:33N 59°43' E 023°04'  
Track history (hours):
 
Tides and Currents Weather Stations Pressure Air Temp Water Temp Dewpoint Dewpoint Depression Visibility Wind Speed Wind Dir Waves Ship Positions

Pulpca

Last reported at 2016-May-29 00:33 UTC. Time now 2016-May-29 07:47 UTC.
Position N 55°40' E 015°35'.

Length 205 m; draft 6.9 m.

Type: Ship (hazmat cat A). MMSI: 245097000.

Date/timePositionNaut miles runAvg speedWind from/ knotsBaromVisibWave heightAir tempDewpointWater temp
2016-May-29 00:33N 55°40' E 015°35'2121.4
2016-May-28 23:33N 55°30' E 015°02'2121.3
2016-May-28 22:34N 55°17' E 014°32'2221.7
2016-May-28 21:33N 55°00' E 014°07'2221.8
2016-May-28 20:33N 54°53' E 013°31'2221.6
2016-May-28 19:33N 54°46' E 012°56'2619.9
2016-May-28 18:14N 54°34' E 012°16'1218.0
2016-May-28 17:34N 54°24' E 012°02'2020.0
2016-May-28 16:33N 54°15' E 011°32'2120.8
2016-May-28 15:34N 54°03' E 011°03'13 1.3
2016-May-28 05:32N 53°54' E 010°47'1 0.4
2016-May-28 03:15N 53°54' E 010°48'4 6.5
2016-May-28 02:33N 53°57' E 010°52'1514.6
2016-May-28 01:33N 54°08' E 011°10'1818.1
2016-May-28 00:33N 54°18' E 011°36'1818.0
2016-May-27 23:33N 54°26' E 012°03'1716.5
2016-May-27 22:33N 54°38' E 012°22'1818.3
2016-May-27 21:33N 54°48' E 012°49'1818.2
2016-May-27 20:33N 54°55' E 013°19'1818.3
2016-May-27 19:33N 55°02' E 013°48'1817.7
2016-May-27 18:33N 55°11' E 014°14'1818.4
2016-May-27 17:33N 55°25' E 014°35'1818.4
2016-May-27 16:33N 55°34' E 015°03'1918.5
2016-May-27 15:33N 55°44' E 015°31'1818.5
2016-May-27 14:33N 55°54' E 015°59'32317.9
2016-May-26 20:33N 59°43' E 023°05'7 0.5
2016-May-26 08:28N 59°48' E 022°58'8 8.8
2016-May-26 07:32N 59°42' E 023°09'7 7.2
2016-May-26 06:32N 59°42' E 023°23'8 8.3
2016-May-26 05:33N 59°42' E 023°39'10 9.7
2016-May-26 04:33N 59°45' E 023°58'29 9.3
2016-May-26 01:24N 59°51' E 024°55'10 9.2
2016-May-26 00:21N 59°52' E 025°14'8 9.4
2016-May-25 23:28N 59°54' E 025°30'10 9.6
2016-May-25 22:22N 59°56' E 025°51'8 9.6
2016-May-25 21:33N 59°58' E 026°06'10 9.7
2016-May-25 20:33N 60°00' E 026°25'9 9.4
2016-May-25 19:33N 60°01' E 026°43'9 9.5
2016-May-25 18:33N 59°60' E 027°02'11 9.5
2016-May-25 17:25N 60°05' E 027°21'9 9.8
2016-May-25 16:29N 60°09' E 027°37'8 8.6
2016-May-25 15:33N 60°11' E 027°53'10 9.3
2016-May-25 14:28N 60°08' E 028°13'8 9.0
2016-May-25 13:33N 60°04' E 028°27'9 9.1
2016-May-25 12:33N 60°03' E 028°45'1615.6
2016-May-25 11:33N 60°02' E 029°16'1413.5
2016-May-25 10:33N 59°59' E 029°43'1111.5
2016-May-25 09:33N 59°55' E 030°03'5 5.2
2016-May-25 08:33N 59°54' E 030°14'0 0.0
2016-May-25 07:31N 59°54' E 030°14'0 0.0
2016-May-25 06:31N 59°54' E 030°14'0 0.0
2016-May-25 05:28N 59°54' E 030°14'0 0.0
2016-May-25 04:31N 59°54' E 030°14'0 0.0
2016-May-25 03:31N 59°54' E 030°14'0 0.0
2016-May-25 02:31N 59°54' E 030°14'0 0.0
2016-May-25 01:25N 59°54' E 030°14'0 0.0
2016-May-25 00:31N 59°54' E 030°14'0 0.0
2016-May-24 23:31N 59°54' E 030°14'0 0.0
2016-May-24 22:31N 59°54' E 030°14'0 0.0
2016-May-24 21:31N 59°54' E 030°14'0 0.0
2016-May-24 20:31N 59°54' E 030°14'0 0.0
2016-May-24 19:28N 59°54' E 030°14'0 0.0
2016-May-24 18:31N 59°54' E 030°14'0 0.0
2016-May-24 17:31N 59°54' E 030°14'0 0.0
2016-May-24 16:31N 59°54' E 030°14'0 0.0
2016-May-24 15:31N 59°54' E 030°14'0 0.0
2016-May-24 14:28N 59°54' E 030°14'0 0.1
2016-May-24 13:31N 59°54' E 030°14'0 0.0
2016-May-24 12:31N 59°54' E 030°14'0 0.0
2016-May-24 11:33N 59°54' E 030°14'0 0.0
2016-May-24 10:27N 59°54' E 030°14'0 0.0
2016-May-24 09:33N 59°54' E 030°14'0 0.0
2016-May-24 08:33N 59°54' E 030°14'0 0.0
2016-May-24 07:33N 59°54' E 030°14'0 0.0
2016-May-24 06:33N 59°54' E 030°14'0 0.0
2016-May-24 05:33N 59°54' E 030°14'0 0.0
2016-May-24 04:33N 59°54' E 030°14'0 0.0
2016-May-24 03:33N 59°54' E 030°14'0 0.4
2016-May-24 02:33N 59°53' E 030°13'8 8.3
2016-May-24 01:33N 59°56' E 029°58'1212.3
2016-May-24 00:33N 60°01' E 029°35'1010.0
2016-May-23 23:33N 60°01' E 029°15'1515.1
2016-May-23 22:33N 60°02' E 028°45'1313.6
2016-May-23 21:34N 60°05' E 028°19'1414.2
2016-May-23 20:33N 60°10' E 027°52'1413.7
2016-May-23 19:33N 60°05' E 027°26'1414.3
2016-May-23 18:33N 59°58' E 027°01'1414.3
2016-May-23 17:34N 59°59' E 026°33'1313.0
2016-May-23 16:33N 60°11' E 026°23'1818.1
2016-May-23 15:34N 60°23' E 026°49'7 7.0
2016-May-23 14:33N 60°29' E 026°57'0 0.0
2016-May-23 13:33N 60°29' E 026°57'0 0.0
2016-May-23 12:33N 60°29' E 026°57'0 0.0
2016-May-23 11:33N 60°29' E 026°57'0 0.0
2016-May-23 10:33N 60°29' E 026°57'0 0.0
2016-May-23 09:33N 60°29' E 026°57'0 0.0
2016-May-23 08:33N 60°29' E 026°57'0 0.0
2016-May-23 07:33N 60°29' E 026°57'0 0.0
2016-May-23 06:33N 60°29' E 026°57'0 0.0
2016-May-23 05:33N 60°29' E 026°57'0 0.0
2016-May-23 04:34N 60°29' E 026°57'1010.1
2016-May-23 03:33N 60°22' E 026°42'1918.7
2016-May-23 02:33N 60°08' E 026°18'2017.3
2016-May-23 01:26N 59°53' E 025°52'5218.0
2016-May-22 22:33N 59°43' E 024°11'1818.1
2016-May-22 21:33N 59°42' E 023°35'1717.0
2016-May-22 20:33N 59°45' E 023°02'4 1.1
2016-May-22 16:27N 59°49' E 022°56'1112.0
2016-May-22 15:33N 59°38' E 022°59'2121.1
2016-May-22 14:33N 59°23' E 022°30'31022.1
2016-May-22 00:29N 55°43' E 015°41'2022.2
2016-May-21 23:33N 55°34' E 015°09'2222.0
2016-May-21 22:33N 55°23' E 014°36'2222.0
2016-May-21 21:34N 55°05' E 014°14'2221.7
2016-May-21 20:33N 54°55' E 013°40'2222.0
2016-May-21 19:33N 54°49' E 013°03'2120.6
2016-May-21 18:33N 54°39' E 012°32'2019.9
2016-May-21 17:33N 54°24' E 012°09'2120.8
2016-May-21 16:34N 54°16' E 011°37'2121.1
2016-May-21 15:33N 54°04' E 011°06'9 0.7
2016-May-21 02:22N 53°59' E 010°55'1417.4
2016-May-21 01:34N 54°09' E 011°12'1918.8
2016-May-21 00:34N 54°19' E 011°39'1818.1
2016-May-20 23:34N 54°26' E 012°07'1817.9
2016-May-20 22:33N 54°40' E 012°27'3819.0
2016-May-20 20:33N 54°56' E 013°27'1919.2
2016-May-20 19:34N 55°04' E 013°58'1918.6
2016-May-20 18:34N 55°17' E 014°20'1918.5
2016-May-20 17:34N 55°30' E 014°44'1918.9
2016-May-20 16:33N 55°39' E 015°13'1918.8
2016-May-20 15:33N 55°48' E 015°42'29018.1
2016-May-19 23:30N 59°17' E 021°58'1313.6
2016-May-19 22:33N 59°24' E 022°18'1313.0
2016-May-19 21:33N 59°31' E 022°40'1212.0
2016-May-19 20:33N 59°37' E 023°01'1211.4
2016-May-19 19:32N 59°48' E 022°57'6 0.3
2016-May-19 02:33N 59°43' E 023°04'  

Dump ship's entire track history